Time;durP1;ratioP1;P1;durP2;ratioP2;P2;SDS_P1;SDS_P2;PMS_P1;PMS_P2;Temp;Humidity;BMP_temperature;BMP_pressure;BME280_temperature;BME280_humidity;BME280_pressure;Samples;Min_cycle;Max_cycle;Signal;HPM_P1;HPM_P2
2022/07/23 00:01:00;;;;;;;24.50;11.50;;;19.70;99.90;;;;;;4973225;28;20450;-72
2022/07/23 00:03:27;;;;;;;15.07;10.90;;;19.60;99.90;;;;;;4973267;28;20452;-72
2022/07/23 00:05:53;;;;;;;17.23;11.23;;;19.50;99.90;;;;;;4973998;28;20455;-72
2022/07/23 00:08:20;;;;;;;17.10;10.67;;;19.40;99.90;;;;;;4972882;28;20448;-72
2022/07/23 00:10:47;;;;;;;15.67;11.17;;;19.40;99.90;;;;;;4973243;28;20512;-71
2022/07/23 00:13:13;;;;;;;21.30;11.40;;;19.30;99.90;;;;;;4972834;28;20886;-71
2022/07/23 00:15:40;;;;;;;16.07;11.50;;;19.20;99.90;;;;;;4972558;28;21048;-72
2022/07/23 00:18:08;;;;;;;16.53;11.47;;;19.10;99.90;;;;;;4973744;28;20430;-71
2022/07/23 00:20:35;;;;;;;16.57;12.47;;;19.00;99.90;;;;;;4991738;28;20451;-71
2022/07/23 00:23:01;;;;;;;19.27;12.73;;;19.00;99.90;;;;;;4983602;28;20482;-72
2022/07/23 00:25:28;;;;;;;16.37;12.07;;;18.90;99.90;;;;;;4991335;28;20505;-71
2022/07/23 00:27:55;;;;;;;18.10;11.87;;;18.80;99.90;;;;;;4991878;28;20456;-72
2022/07/23 00:30:22;;;;;;;26.57;12.30;;;18.70;99.90;;;;;;4991369;28;20459;-72
2022/07/23 00:32:49;;;;;;;19.10;12.47;;;18.70;99.90;;;;;;4985876;28;20463;-71
2022/07/23 00:35:20;;;;;;;20.00;13.10;;;18.50;99.90;;;;;;4972316;28;20462;-71
2022/07/23 00:37:46;;;;;;;18.67;12.20;;;18.50;99.90;;;;;;4972786;28;20501;-72
2022/07/23 00:40:13;;;;;;;15.60;11.73;;;18.40;99.90;;;;;;4972817;28;20452;-71
2022/07/23 00:42:40;;;;;;;22.33;13.80;;;18.30;99.90;;;;;;4972813;28;20940;-72
2022/07/23 00:45:08;;;;;;;19.40;12.90;;;18.30;99.90;;;;;;4972484;28;20681;-72
2022/07/23 00:47:35;;;;;;;15.73;11.63;;;18.20;99.90;;;;;;4980010;28;20527;-71
2022/07/23 00:50:02;;;;;;;20.67;12.93;;;18.20;99.90;;;;;;4972531;28;20964;-71
2022/07/23 00:52:30;;;;;;;19.00;11.87;;;18.20;99.90;;;;;;4964897;28;20463;-71
2022/07/23 00:54:57;;;;;;;18.17;13.30;;;18.20;99.90;;;;;;4972483;28;20466;-71
2022/07/23 00:57:24;;;;;;;17.67;12.00;;;18.10;99.90;;;;;;4972595;28;20526;-72
2022/07/23 00:59:51;;;;;;;28.67;14.13;;;18.20;99.90;;;;;;4972360;28;20502;-71
2022/07/23 01:02:17;;;;;;;20.30;13.00;;;18.10;99.90;;;;;;4988403;28;20496;-71
2022/07/23 01:04:44;;;;;;;28.60;13.17;;;18.10;99.90;;;;;;4991561;28;20429;-72
2022/07/23 01:07:11;;;;;;;22.40;13.73;;;18.20;99.90;;;;;;4991288;28;20461;-72
2022/07/23 01:09:39;;;;;;;18.47;12.40;;;18.10;99.90;;;;;;4989739;28;20463;-71
2022/07/23 01:12:07;;;;;;;17.57;12.53;;;18.10;99.90;;;;;;4984030;28;20431;-71
2022/07/23 01:14:34;;;;;;;18.20;12.63;;;18.10;99.90;;;;;;4975069;28;20505;-71
2022/07/23 01:17:00;;;;;;;19.83;12.40;;;18.20;99.90;;;;;;4972570;28;20859;-71
2022/07/23 01:19:27;;;;;;;20.53;12.80;;;18.10;99.90;;;;;;4972308;28;20984;-71
2022/07/23 01:21:56;;;;;;;18.57;13.23;;;18.10;99.90;;;;;;4972465;28;21080;-71
2022/07/23 01:24:24;;;;;;;16.83;11.90;;;18.10;99.90;;;;;;4972227;28;20942;-71
2022/07/23 01:26:51;;;;;;;15.90;11.87;;;18.10;99.90;;;;;;4972021;28;20451;-71
2022/07/23 01:29:19;;;;;;;21.80;12.80;;;18.10;99.90;;;;;;4981197;28;20496;-71
2022/07/23 01:31:45;;;;;;;19.40;13.00;;;18.10;99.90;;;;;;4975796;28;20430;-71
2022/07/23 01:34:12;;;;;;;28.70;13.47;;;18.10;99.90;;;;;;4976782;28;20431;-71
2022/07/23 01:36:39;;;;;;;18.67;12.43;;;18.10;99.90;;;;;;4973187;28;20979;-71
2022/07/23 01:39:07;;;;;;;18.77;12.77;;;18.00;99.90;;;;;;4978786;28;20426;-71
2022/07/23 01:41:35;;;;;;;18.33;12.30;;;18.00;99.90;;;;;;4990658;28;20430;-72
2022/07/23 01:44:02;;;;;;;20.73;12.87;;;18.00;99.90;;;;;;4992788;28;20479;-71
2022/07/23 01:46:28;;;;;;;19.87;13.27;;;18.00;99.90;;;;;;4994176;28;20467;-71
2022/07/23 01:48:55;;;;;;;26.30;13.73;;;18.00;99.90;;;;;;4994527;28;20444;-71
2022/07/23 01:51:22;;;;;;;23.43;13.77;;;18.00;99.90;;;;;;4986453;28;20431;-71
2022/07/23 01:53:48;;;;;;;20.63;13.63;;;18.00;99.90;;;;;;4986386;28;20476;-71
2022/07/23 01:56:15;;;;;;;19.70;13.67;;;18.00;99.90;;;;;;4994103;28;21114;-71
2022/07/23 01:58:43;;;;;;;20.70;13.37;;;18.00;99.90;;;;;;4992802;28;20457;-71
2022/07/23 02:01:10;;;;;;;22.80;14.43;;;17.90;99.90;;;;;;4994059;28;20429;-71
2022/07/23 02:03:37;;;;;;;20.43;13.90;;;17.90;99.90;;;;;;4993955;28;20457;-71
2022/07/23 02:06:03;;;;;;;23.10;13.57;;;17.90;99.90;;;;;;4981068;28;20451;-71
2022/07/23 02:08:30;;;;;;;19.80;13.50;;;17.90;99.90;;;;;;4975160;28;20435;-71
2022/07/23 02:10:57;;;;;;;17.83;12.87;;;17.90;99.90;;;;;;4975324;28;20832;-71
2022/07/23 02:13:24;;;;;;;23.87;14.27;;;17.80;99.90;;;;;;4988893;28;20459;-71
2022/07/23 02:15:52;;;;;;;23.23;13.80;;;17.80;99.90;;;;;;4992350;28;20454;-71
2022/07/23 02:18:18;;;;;;;22.10;13.80;;;17.80;99.90;;;;;;4994239;28;20455;-72
2022/07/23 02:20:45;;;;;;;19.53;13.80;;;17.80;99.90;;;;;;4975861;28;20439;-71
2022/07/23 02:23:11;;;;;;;21.13;14.10;;;17.80;99.90;;;;;;4975372;28;20861;-71
2022/07/23 02:25:38;;;;;;;24.17;14.50;;;17.70;99.90;;;;;;4975695;28;20990;-71
2022/07/23 02:28:05;;;;;;;20.27;14.37;;;17.70;99.90;;;;;;4972230;28;20865;-71
2022/07/23 02:30:31;;;;;;;21.50;13.20;;;17.60;99.90;;;;;;4982800;28;20426;-71
2022/07/23 02:32:59;;;;;;;22.80;13.60;;;17.60;99.90;;;;;;4993952;28;20455;-71
2022/07/23 02:35:26;;;;;;;22.37;14.00;;;17.50;99.90;;;;;;4986160;28;20466;-71
2022/07/23 02:37:53;;;;;;;25.37;14.00;;;17.50;99.90;;;;;;4974749;28;20446;-71
2022/07/23 02:40:19;;;;;;;23.87;13.90;;;17.40;99.90;;;;;;4974671;28;20467;-71
2022/07/23 02:42:46;;;;;;;20.47;12.97;;;17.40;99.90;;;;;;4974872;28;20775;-71
2022/07/23 02:45:13;;;;;;;19.70;13.90;;;17.40;99.90;;;;;;4987554;28;20431;-71
2022/07/23 02:47:40;;;;;;;22.83;14.70;;;17.40;99.90;;;;;;4992685;28;20446;-71
2022/07/23 02:50:09;;;;;;;21.07;14.40;;;17.40;99.90;;;;;;4992020;28;20434;-72
2022/07/23 02:52:36;;;;;;;22.63;14.03;;;17.40;99.90;;;;;;4992915;28;20465;-71
2022/07/23 02:55:02;;;;;;;25.67;14.03;;;17.40;99.90;;;;;;4992167;28;20545;-72
2022/07/23 02:57:29;;;;;;;20.70;13.50;;;17.30;99.90;;;;;;4978220;28;20472;-71
2022/07/23 02:59:56;;;;;;;20.40;13.80;;;17.30;99.90;;;;;;4992403;28;20453;-71
2022/07/23 03:02:23;;;;;;;21.93;14.10;;;17.30;99.90;;;;;;4979391;28;20435;-71
2022/07/23 03:04:50;;;;;;;29.80;14.77;;;17.30;99.90;;;;;;4974433;28;20551;-71
2022/07/23 03:07:18;;;;;;;21.93;13.90;;;17.30;99.90;;;;;;4973892;28;20970;-71
2022/07/23 03:09:44;;;;;;;18.67;13.17;;;17.30;99.90;;;;;;4974159;28;20468;-71
2022/07/23 03:12:11;;;;;;;22.90;14.10;;;17.30;99.90;;;;;;4982679;28;20510;-71
2022/07/23 03:14:38;;;;;;;24.07;14.10;;;17.30;99.90;;;;;;4992564;28;20438;-71
2022/07/23 03:17:04;;;;;;;24.83;14.17;;;17.30;99.90;;;;;;4987067;28;20469;-71
2022/07/23 03:19:31;;;;;;;22.93;13.80;;;17.30;99.90;;;;;;4992854;28;20816;-71
2022/07/23 03:21:58;;;;;;;22.30;13.40;;;17.30;99.90;;;;;;4991241;28;20449;-71
2022/07/23 03:24:53;;;;;;;20.70;14.03;;;17.30;99.90;;;;;;4992658;28;20525;-71
2022/07/23 03:27:13;;;;;;;22.00;12.90;;;17.30;99.90;;;;;;4992003;28;20984;-71
2022/07/23 03:29:39;;;;;;;20.13;13.30;;;17.30;99.90;;;;;;4984754;28;20426;-71
2022/07/23 03:32:07;;;;;;;19.03;13.50;;;17.30;99.90;;;;;;4992821;28;20476;-71
2022/07/23 03:34:33;;;;;;;20.50;13.63;;;17.30;99.90;;;;;;4992763;28;20429;-71
2022/07/23 03:37:00;;;;;;;22.43;13.30;;;17.30;99.90;;;;;;4988828;28;20523;-71
2022/07/23 03:39:28;;;;;;;19.60;13.33;;;17.30;99.90;;;;;;4973622;28;20427;-71
2022/07/23 03:41:55;;;;;;;24.23;13.43;;;17.30;99.90;;;;;;4973797;28;20477;-71
2022/07/23 03:44:21;;;;;;;20.00;13.00;;;17.30;99.90;;;;;;4973774;28;20460;-71
2022/07/23 03:46:48;;;;;;;21.60;14.03;;;17.30;99.90;;;;;;4973823;28;20443;-71
2022/07/23 03:49:15;;;;;;;21.03;14.13;;;17.30;99.90;;;;;;4992174;28;20434;-71
2022/07/23 03:51:41;;;;;;;21.57;14.10;;;17.30;99.90;;;;;;4984346;28;20489;-71
2022/07/23 03:54:08;;;;;;;22.80;15.17;;;17.30;99.90;;;;;;4973697;28;20423;-71
2022/07/23 03:56:36;;;;;;;24.73;14.60;;;17.30;99.90;;;;;;4973137;28;20521;-71
2022/07/23 03:59:03;;;;;;;25.83;15.80;;;17.30;99.90;;;;;;4973465;28;20435;-71
2022/07/23 04:01:30;;;;;;;26.17;15.37;;;17.30;99.90;;;;;;4973320;28;20439;-71
2022/07/23 04:03:57;;;;;;;31.13;15.23;;;17.30;99.90;;;;;;4973165;28;20477;-71
2022/07/23 04:06:24;;;;;;;23.10;15.07;;;17.30;99.90;;;;;;4989382;28;20504;-71
2022/07/23 04:08:50;;;;;;;24.77;15.57;;;17.30;99.90;;;;;;4991920;28;20492;-71
2022/07/23 04:11:17;;;;;;;21.80;14.63;;;17.30;99.90;;;;;;4991182;28;20437;-71
2022/07/23 04:13:45;;;;;;;28.03;15.00;;;17.30;99.90;;;;;;4981248;28;20459;-71
2022/07/23 04:16:12;;;;;;;28.70;15.87;;;17.30;99.90;;;;;;4991235;28;20473;-71
2022/07/23 04:18:38;;;;;;;29.60;16.17;;;17.30;99.90;;;;;;4985532;28;20438;-71
2022/07/23 04:21:05;;;;;;;27.77;15.47;;;17.30;99.90;;;;;;4987429;28;20822;-71
2022/07/23 04:23:32;;;;;;;26.97;15.77;;;17.30;99.90;;;;;;4991781;28;20434;-71
2022/07/23 04:25:58;;;;;;;30.80;17.00;;;17.20;99.90;;;;;;4990669;28;20501;-71
2022/07/23 04:28:25;;;;;;;30.53;16.90;;;17.20;99.90;;;;;;4972969;28;20426;-71
2022/07/23 04:30:53;;;;;;;24.13;15.43;;;17.20;99.90;;;;;;4973502;28;20426;-71
2022/07/23 04:33:20;;;;;;;26.13;16.00;;;17.20;99.90;;;;;;4986725;28;20422;-71
2022/07/23 04:35:47;;;;;;;27.83;17.20;;;17.30;99.90;;;;;;4987170;28;20466;-71
2022/07/23 04:38:13;;;;;;;24.47;16.67;;;17.30;99.90;;;;;;4989964;28;21203;-71
2022/07/23 04:40:40;;;;;;;32.40;16.37;;;17.30;99.90;;;;;;4991549;28;21016;-71
2022/07/23 04:43:06;;;;;;;28.40;17.23;;;17.40;99.90;;;;;;4991040;28;20472;-71
2022/07/23 04:45:33;;;;;;;26.40;15.83;;;17.40;99.90;;;;;;4991464;28;20443;-71
2022/07/23 04:48:01;;;;;;;28.23;16.83;;;17.40;99.90;;;;;;4982818;28;20467;-71
2022/07/23 04:50:28;;;;;;;22.67;15.87;;;17.50;99.90;;;;;;4972887;28;20423;-71
2022/07/23 04:52:54;;;;;;;24.60;15.93;;;17.50;99.90;;;;;;4972727;28;20486;-71
2022/07/23 04:55:21;;;;;;;28.47;16.50;;;17.50;99.90;;;;;;4964697;28;20507;-71
2022/07/23 04:57:48;;;;;;;24.87;16.20;;;17.60;99.90;;;;;;4972397;28;20443;-71
2022/07/23 05:00:15;;;;;;;26.27;16.30;;;17.60;99.90;;;;;;4972898;28;20433;-71
2022/07/23 05:02:42;;;;;;;24.23;16.03;;;17.60;99.90;;;;;;4983507;28;20919;-71
2022/07/23 05:05:10;;;;;;;26.57;14.73;;;17.60;99.90;;;;;;4981281;28;20492;-71
2022/07/23 05:07:36;;;;;;;25.00;14.93;;;17.70;99.90;;;;;;4991280;28;20867;-71
2022/07/23 05:10:04;;;;;;;28.23;15.17;;;17.80;99.90;;;;;;4983029;28;20435;-71
2022/07/23 05:12:30;;;;;;;24.90;15.17;;;17.80;99.90;;;;;;4977158;28;20426;-71
2022/07/23 05:14:57;;;;;;;22.80;15.00;;;17.90;99.90;;;;;;4983756;28;20435;-71
2022/07/23 05:17:24;;;;;;;23.03;14.27;;;18.00;99.90;;;;;;4990787;28;20916;-71
2022/07/23 05:19:50;;;;;;;20.23;13.60;;;18.10;99.90;;;;;;4994651;28;20422;-71
2022/07/23 05:22:18;;;;;;;29.90;14.27;;;18.20;99.90;;;;;;4992946;28;20455;-71
2022/07/23 05:24:45;;;;;;;19.97;13.83;;;18.30;99.90;;;;;;4976171;28;20431;-71
2022/07/23 05:27:11;;;;;;;25.80;15.00;;;18.40;99.90;;;;;;4975726;28;20861;-72
2022/07/23 05:29:38;;;;;;;22.03;12.83;;;18.50;99.90;;;;;;4988660;28;20432;-80
2022/07/23 05:32:06;;;;;;;22.43;14.43;;;18.60;99.90;;;;;;4984228;28;20452;-81
2022/07/23 05:34:32;;;;;;;19.13;13.83;;;18.70;99.90;;;;;;4987100;28;20427;-81
2022/07/23 05:36:59;;;;;;;16.47;11.43;;;19.00;99.90;;;;;;4991589;28;20480;-81
2022/07/23 05:39:27;;;;;;;20.00;11.80;;;19.20;99.90;;;;;;4979988;28;20438;-81
2022/07/23 05:41:53;;;;;;;17.43;11.50;;;19.30;99.90;;;;;;4978202;28;20843;-79
2022/07/23 05:44:21;;;;;;;20.50;13.10;;;19.50;99.90;;;;;;4992640;28;20450;-81
2022/07/23 05:46:48;;;;;;;16.23;11.07;;;19.60;99.90;;;;;;4983096;28;20475;-82
2022/07/23 05:49:15;;;;;;;13.97;10.33;;;19.80;99.90;;;;;;4982894;28;20431;-82
2022/07/23 05:51:42;;;;;;;14.77;11.00;;;19.90;99.90;;;;;;4973147;28;20459;-82
2022/07/23 05:54:08;;;;;;;18.70;11.20;;;20.10;99.90;;;;;;4970126;28;20445;-82
2022/07/23 05:56:36;;;;;;;15.23;9.33;;;20.10;99.90;;;;;;4985013;28;20530;-82
2022/07/23 05:59:03;;;;;;;16.90;10.30;;;20.20;99.90;;;;;;4980403;28;20523;-82
2022/07/23 06:01:30;;;;;;;16.70;11.10;;;20.40;99.90;;;;;;4983558;28;20727;-82
2022/07/23 06:03:56;;;;;;;19.20;10.33;;;20.60;99.90;;;;;;4988813;28;20456;-82
2022/07/23 06:06:23;;;;;;;19.37;11.07;;;20.60;99.90;;;;;;4989467;28;20958;-82
2022/07/23 06:08:50;;;;;;;12.90;9.77;;;20.60;99.90;;;;;;4993988;28;20735;-81
2022/07/23 06:11:16;;;;;;;13.10;9.23;;;20.80;99.90;;;;;;4993181;28;20574;-81
2022/07/23 06:13:44;;;;;;;17.90;10.40;;;20.80;99.90;;;;;;4967305;28;20481;-80
2022/07/23 06:16:11;;;;;;;14.83;9.47;;;21.00;99.90;;;;;;4981256;28;20589;-80
2022/07/23 06:18:37;;;;;;;16.37;10.43;;;21.00;99.90;;;;;;4991452;28;20526;-80
2022/07/23 06:21:04;;;;;;;18.90;10.00;;;21.10;99.90;;;;;;4988939;28;20458;-82
2022/07/23 06:23:31;;;;;;;12.30;9.53;;;21.20;99.90;;;;;;4986196;28;21044;-82
2022/07/23 06:25:58;;;;;;;9.97;7.80;;;21.40;99.90;;;;;;4993320;28;20826;-83
2022/07/23 06:28:24;;;;;;;13.63;8.57;;;21.60;99.90;;;;;;4993638;28;20931;-80
2022/07/23 06:30:52;;;;;;;12.60;8.37;;;21.70;99.90;;;;;;4993653;28;21080;-76
2022/07/23 06:33:19;;;;;;;12.33;8.37;;;21.90;99.90;;;;;;4986207;28;20469;-80
2022/07/23 06:35:46;;;;;;;12.63;9.17;;;22.10;99.90;;;;;;4966816;28;20460;-79
2022/07/23 06:38:12;;;;;;;12.00;8.93;;;22.30;99.90;;;;;;4974780;28;20569;-79
2022/07/23 06:40:39;;;;;;;14.90;9.17;;;22.40;99.90;;;;;;4974893;28;20452;-78
2022/07/23 06:43:06;;;;;;;15.60;8.17;;;22.40;99.90;;;;;;4974813;28;20511;-80
2022/07/23 06:45:32;;;;;;;9.60;8.20;;;22.50;99.90;;;;;;4976134;28;20580;-80
2022/07/23 06:48:02;;;;;;;10.47;8.10;;;22.60;99.90;;;;;;4985052;28;20517;-79
2022/07/23 06:50:28;;;;;;;9.80;8.80;;;22.60;99.90;;;;;;4985054;28;20547;-80
2022/07/23 06:52:55;;;;;;;14.33;8.23;;;22.70;99.90;;;;;;4986456;28;20500;-80
2022/07/23 06:55:22;;;;;;;10.17;7.40;;;22.80;99.90;;;;;;4992871;28;20447;-80
2022/07/23 06:57:48;;;;;;;14.97;8.20;;;22.90;99.90;;;;;;4989877;28;20595;-80
2022/07/23 07:00:15;;;;;;;11.50;7.90;;;23.00;99.90;;;;;;4974539;28;20538;-79
2022/07/23 07:02:42;;;;;;;10.13;7.20;;;23.10;99.90;;;;;;4989779;28;20455;-80
2022/07/23 07:05:10;;;;;;;18.30;8.20;;;23.10;99.90;;;;;;4979303;28;20513;-80
2022/07/23 07:07:36;;;;;;;9.17;7.30;;;23.20;99.90;;;;;;4977245;28;21054;-80
2022/07/23 07:10:04;;;;;;;10.80;7.87;;;23.20;99.90;;;;;;4980344;28;20460;-80
2022/07/23 07:12:30;;;;;;;17.63;8.90;;;23.40;99.90;;;;;;4979930;28;20458;-79
2022/07/23 07:14:57;;;;;;;8.87;7.20;;;23.50;99.90;;;;;;4984736;28;20510;-78
2022/07/23 07:17:24;;;;;;;11.10;7.47;;;23.60;99.90;;;;;;4992699;28;20499;-76
2022/07/23 07:19:50;;;;;;;7.57;6.83;;;23.70;99.90;;;;;;4991234;28;20451;-79
2022/07/23 07:22:18;;;;;;;7.50;6.80;;;23.70;99.90;;;;;;4968444;28;20487;-80
2022/07/23 07:24:45;;;;;;;12.57;6.77;;;23.80;99.90;;;;;;4970841;28;21026;-78
2022/07/23 07:27:12;;;;;;;11.10;7.10;;;23.80;99.90;;;;;;4976742;28;21054;-79
2022/07/23 07:29:38;;;;;;;8.17;7.37;;;23.70;99.90;;;;;;4976363;28;20455;-78
2022/07/23 07:32:06;;;;;;;8.53;6.90;;;23.40;99.90;;;;;;4991155;28;21077;-77
2022/07/23 07:34:33;;;;;;;10.47;6.80;;;23.20;99.90;;;;;;4984358;28;20455;-77
2022/07/23 07:37:00;;;;;;;11.20;7.13;;;23.10;99.90;;;;;;4973442;28;20483;-77
2022/07/23 07:39:28;;;;;;;11.43;6.87;;;23.10;99.90;;;;;;4981603;28;20486;-77
2022/07/23 07:41:54;;;;;;;13.17;7.80;;;23.00;99.90;;;;;;4989133;28;20515;-76
2022/07/23 07:44:21;;;;;;;12.60;7.83;;;23.10;99.90;;;;;;4973467;28;20515;-75
2022/07/23 07:46:48;;;;;;;8.70;6.73;;;22.90;99.90;;;;;;4973975;28;20503;-80
2022/07/23 07:49:17;;;;;;;8.67;7.40;;;22.90;99.90;;;;;;4973248;28;20463;-80
2022/07/23 07:51:43;;;;;;;9.93;7.77;;;22.90;99.90;;;;;;4989533;28;20450;-79
2022/07/23 07:54:10;;;;;;;12.10;7.60;;;22.90;99.90;;;;;;4976693;28;20459;-79
2022/07/23 07:56:38;;;;;;;7.60;6.40;;;22.90;99.90;;;;;;4980059;28;20537;-79
2022/07/23 07:59:05;;;;;;;8.00;6.70;;;22.90;99.90;;;;;;4972485;28;20515;-76
2022/07/23 08:01:32;;;;;;;9.90;6.70;;;22.80;99.90;;;;;;4973099;28;20459;-78
2022/07/23 08:03:59;;;;;;;9.30;6.47;;;22.80;99.90;;;;;;4987749;28;20456;-75
2022/07/23 08:06:26;;;;;;;13.00;6.77;;;23.00;99.90;;;;;;4989822;28;20886;-78
2022/07/23 08:08:52;;;;;;;8.63;7.43;;;23.00;99.90;;;;;;4990308;28;20591;-76
2022/07/23 08:11:19;;;;;;;12.33;7.13;;;23.30;99.90;;;;;;4986270;28;20459;-75
2022/07/23 08:13:47;;;;;;;8.93;6.20;;;23.70;99.90;;;;;;4972995;28;20456;-81
2022/07/23 08:16:14;;;;;;;7.73;6.43;;;24.20;99.90;;;;;;4978346;28;20529;-79
2022/07/23 08:18:40;;;;;;;8.20;6.60;;;24.60;99.90;;;;;;4974305;28;20534;-81
2022/07/23 08:21:07;;;;;;;6.77;6.10;;;24.90;99.90;;;;;;4968843;28;20456;-79
2022/07/23 08:23:34;;;;;;;9.83;6.23;;;25.10;99.90;;;;;;4976776;28;20506;-78
2022/07/23 08:26:01;;;;;;;7.70;6.00;;;25.30;99.90;;;;;;4977002;28;20460;-79
2022/07/23 08:28:28;;;;;;;7.17;5.70;;;25.30;99.90;;;;;;4974023;28;20452;-79
2022/07/23 08:30:56;;;;;;;6.77;5.40;;;25.60;99.90;;;;;;4984528;28;20454;-77
2022/07/23 08:33:22;;;;;;;8.10;6.20;;;25.70;99.90;;;;;;4990613;28;21053;-79
2022/07/23 08:35:52;;;;;;;8.03;6.07;;;25.90;99.90;;;;;;4990585;28;20451;-76
2022/07/23 08:38:20;;;;;;;6.93;5.50;;;25.90;99.90;;;;;;4990577;28;20491;-73
2022/07/23 08:40:50;;;;;;;12.50;6.80;;;25.90;99.90;;;;;;4990358;28;20455;-74
2022/07/23 08:43:19;;;;;;;6.90;5.63;;;25.80;99.90;;;;;;4988465;28;20515;-74
2022/07/23 08:45:48;;;;;;;7.70;6.20;;;25.40;99.90;;;;;;4983291;28;20461;-73
2022/07/23 08:48:18;;;;;;;7.00;5.27;;;25.40;99.90;;;;;;4972079;28;20948;-74
2022/07/23 08:50:46;;;;;;;6.40;5.70;;;25.70;99.90;;;;;;4979439;28;20864;-75
2022/07/23 08:53:14;;;;;;;9.63;6.03;;;26.00;99.90;;;;;;4979276;28;21121;-79
2022/07/23 08:55:43;;;;;;;8.57;5.73;;;26.20;99.90;;;;;;4984334;28;20459;-77
2022/07/23 08:58:10;;;;;;;8.23;5.80;;;26.40;99.90;;;;;;4990828;28;20490;-78
2022/07/23 09:00:37;;;;;;;11.67;5.23;;;26.60;99.90;;;;;;4990434;28;20872;-77
2022/07/23 09:03:04;;;;;;;7.20;5.10;;;26.80;99.90;;;;;;4993761;28;20501;-77
2022/07/23 09:05:32;;;;;;;5.50;5.00;;;27.00;99.90;;;;;;4992779;28;20509;-78
2022/07/23 09:08:10;;;;;;;6.83;5.80;;;27.20;99.90;;;;;;4993855;28;20513;-77
2022/07/23 09:10:48;;;;;;;6.07;5.30;;;27.30;99.90;;;;;;4980459;28;20444;-78
2022/07/23 09:13:42;;;;;;;10.77;5.63;;;27.30;99.90;;;;;;4987881;28;20459;-77
2022/07/23 09:16:12;;;;;;;6.03;4.70;;;27.30;99.90;;;;;;4976231;28;20553;-80
2022/07/23 09:18:43;;;;;;;6.80;5.13;;;27.10;99.90;;;;;;4979491;28;20495;-77
2022/07/23 09:21:14;;;;;;;10.13;5.00;;;27.10;99.90;;;;;;4978075;28;20463;-77
2022/07/23 09:23:43;;;;;;;6.73;5.03;;;27.00;99.90;;;;;;4981955;28;20514;-77
2022/07/23 09:26:29;;;;;;;6.63;6.00;;;26.90;99.90;;;;;;4981595;28;20471;-77
2022/07/23 09:28:59;;;;;;;7.67;5.63;;;26.90;99.90;;;;;;4982641;28;20534;-76
2022/07/23 09:31:31;;;;;;;9.67;5.33;;;27.10;99.90;;;;;;4982145;28;20952;-74
2022/07/23 09:34:08;;;;;;;6.87;5.37;;;27.40;99.90;;;;;;4982603;28;20825;-78
2022/07/23 09:36:37;;;;;;;5.50;4.93;;;27.80;99.90;;;;;;4981373;28;20492;-75
2022/07/23 09:39:04;;;;;;;7.43;5.03;;;28.00;99.90;;;;;;4982644;28;20602;-75
2022/07/23 09:41:36;;;;;;;6.53;5.60;;;28.30;99.90;;;;;;4982058;28;21022;-78
2022/07/23 09:44:08;;;;;;;6.57;5.60;;;28.30;99.90;;;;;;4982124;28;20455;-76
2022/07/23 09:46:35;;;;;;;7.97;5.87;;;28.40;99.90;;;;;;4981916;28;20913;-79
2022/07/23 09:49:12;;;;;;;9.40;5.20;;;28.30;99.90;;;;;;4982196;28;20521;-80
2022/07/23 09:51:47;;;;;;;6.03;5.43;;;28.30;99.90;;;;;;4982386;28;20594;-75
2022/07/23 09:54:22;;;;;;;8.10;4.97;;;28.40;99.90;;;;;;4981772;28;20541;-75
2022/07/23 09:56:50;;;;;;;6.97;5.30;;;28.40;99.90;;;;;;4981269;28;20466;-75
2022/07/23 09:59:18;;;;;;;5.13;4.63;;;28.40;99.90;;;;;;4981507;28;20564;-75
2022/07/23 10:01:45;;;;;;;7.00;4.83;;;28.50;99.90;;;;;;4981798;28;20483;-75
2022/07/23 10:04:13;;;;;;;4.70;4.20;;;28.70;99.90;;;;;;4980692;28;20459;-75
2022/07/23 10:06:41;;;;;;;5.37;4.87;;;28.70;99.90;;;;;;4981659;28;20529;-75
2022/07/23 10:09:12;;;;;;;6.07;4.60;;;28.70;99.90;;;;;;4981342;28;20467;-74
2022/07/23 10:11:39;;;;;;;5.80;5.20;;;28.50;99.90;;;;;;4981494;28;20451;-75
2022/07/23 10:14:06;;;;;;;5.83;4.60;;;28.60;99.90;;;;;;4980768;28;20474;-75
2022/07/23 10:16:33;;;;;;;8.93;4.27;;;28.90;99.90;;;;;;4980901;28;20467;-75
2022/07/23 10:19:00;;;;;;;6.57;5.30;;;28.80;99.90;;;;;;4981681;28;20475;-73
2022/07/23 10:21:37;;;;;;;5.53;4.53;;;28.70;99.90;;;;;;4981308;28;20455;-72
2022/07/23 10:24:16;;;;;;;5.60;4.63;;;28.60;99.90;;;;;;4981514;28;20463;-72
2022/07/23 10:26:51;;;;;;;5.47;4.97;;;28.70;99.90;;;;;;4980275;28;20470;-70
2022/07/23 10:29:30;;;;;;;5.20;4.57;;;28.90;99.90;;;;;;4980710;28;20948;-70
2022/07/23 10:32:03;;;;;;;5.23;4.80;;;29.10;99.90;;;;;;4979991;28;20482;-70
2022/07/23 10:34:41;;;;;;;5.43;4.73;;;29.30;99.90;;;;;;4980105;28;21589;-69
2022/07/23 10:37:16;;;;;;;5.13;4.63;;;29.20;99.90;;;;;;4980204;28;20483;-69
2022/07/23 10:39:44;;;;;;;7.00;5.00;;;29.10;99.90;;;;;;4980279;28;20487;-69
2022/07/23 10:42:13;;;;;;;5.63;5.13;;;29.20;99.90;;;;;;4980018;28;20462;-69
2022/07/23 10:44:42;;;;;;;5.63;5.13;;;29.30;99.90;;;;;;4980341;28;20460;-70
2022/07/23 10:50:18;;;;;;;6.73;5.00;;;29.70;99.90;;;;;;4909579;29;20454;-76
2022/07/23 10:53:11;;;;;;;5.70;5.20;;;30.00;99.90;;;;;;4968732;28;20455;-76
2022/07/23 10:55:45;;;;;;;6.23;5.53;;;30.00;99.90;;;;;;4980006;28;20456;-76
2022/07/23 10:58:17;;;;;;;10.23;5.40;;;30.10;99.90;;;;;;4979627;28;20904;-77
2022/07/23 11:00:44;;;;;;;6.47;5.87;;;30.20;99.90;;;;;;4980024;28;20466;-77
2022/07/23 11:03:31;;;;;;;6.27;5.67;;;30.30;99.90;;;;;;4978899;28;20443;-76
2022/07/23 11:05:58;;;;;;;7.90;6.07;;;29.70;99.90;;;;;;4979736;28;20454;-77
2022/07/23 11:08:25;;;;;;;9.13;6.33;;;29.80;99.90;;;;;;4979662;28;20514;-77
2022/07/23 11:11:09;;;;;;;12.30;6.00;;;29.90;99.90;;;;;;4980011;28;20462;-77
2022/07/23 11:13:48;;;;;;;7.40;6.23;;;30.00;99.90;;;;;;4979551;28;20470;-77
2022/07/23 11:16:17;;;;;;;6.27;5.67;;;30.10;99.90;;;;;;4979492;28;20472;-77
2022/07/23 11:19:11;;;;;;;6.80;5.67;;;29.80;99.90;;;;;;4980101;28;21131;-77
2022/07/23 11:21:51;;;;;;;6.13;5.53;;;29.80;99.90;;;;;;4980284;28;20447;-76
2022/07/23 11:24:20;;;;;;;9.93;5.90;;;29.70;99.90;;;;;;4979477;28;20459;-72
2022/07/23 11:26:57;;;;;;;6.53;5.70;;;29.50;99.90;;;;;;4979455;28;20230;-72
2022/07/23 11:29:43;;;;;;;7.83;6.60;;;29.60;99.90;;;;;;4979829;28;20482;-72
2022/07/23 11:32:29;;;;;;;7.73;5.73;;;29.90;99.90;;;;;;4979531;28;20447;-72
2022/07/23 11:34:56;;;;;;;7.33;6.40;;;30.20;99.90;;;;;;4980008;28;20485;-72
2022/07/23 11:37:44;;;;;;;6.30;5.70;;;30.50;99.90;;;;;;4979417;28;20537;-72
2022/07/23 11:40:14;;;;;;;6.17;5.57;;;30.70;99.90;;;;;;4974342;28;20467;-72
2022/07/23 11:42:57;;;;;;;6.57;6.00;;;30.40;99.90;;;;;;4979780;28;20494;-72
2022/07/23 11:45:25;;;;;;;9.30;6.27;;;30.30;99.90;;;;;;4979762;28;20515;-72
2022/07/23 11:47:52;;;;;;;8.67;6.80;;;30.10;99.90;;;;;;4979227;28;20511;-72
2022/07/23 11:50:19;;;;;;;8.07;6.20;;;29.90;99.90;;;;;;4979718;28;20451;-72
2022/07/23 11:52:45;;;;;;;12.97;10.10;;;30.10;99.90;;;;;;4979409;28;20539;-72
2022/07/23 11:55:15;;;;;;;9.17;8.23;;;30.20;99.90;;;;;;4979270;28;20455;-72
2022/07/23 11:57:44;;;;;;;13.17;7.10;;;30.50;99.90;;;;;;4979267;28;20475;-73
2022/07/23 12:00:13;;;;;;;6.57;5.70;;;30.80;99.90;;;;;;4979427;28;21042;-73
2022/07/23 12:02:41;;;;;;;6.30;5.70;;;30.90;99.90;;;;;;4979715;28;20451;-72
2022/07/23 12:05:11;;;;;;;6.77;6.17;;;31.00;99.90;;;;;;4979299;28;20452;-72
2022/07/23 12:07:40;;;;;;;8.17;6.63;;;31.20;99.90;;;;;;4979204;28;20472;-71
2022/07/23 12:10:11;;;;;;;7.23;6.23;;;31.20;99.90;;;;;;4978562;28;20470;-72
2022/07/23 12:12:39;;;;;;;5.73;5.23;;;30.80;99.90;;;;;;4979272;28;20446;-71
2022/07/23 12:15:09;;;;;;;7.27;6.57;;;30.50;99.90;;;;;;4979196;28;20546;-72
2022/07/23 12:17:38;;;;;;;6.67;5.97;;;30.20;99.90;;;;;;4978962;28;20907;-72
2022/07/23 12:20:07;;;;;;;6.80;6.10;;;30.00;99.90;;;;;;4968775;28;20506;-72
2022/07/23 12:22:37;;;;;;;6.33;5.73;;;29.80;99.90;;;;;;4977430;28;20510;-73
2022/07/23 12:25:07;;;;;;;7.87;6.30;;;29.60;99.90;;;;;;4976536;28;22188;-73
2022/07/23 12:27:34;;;;;;;6.97;6.27;;;29.50;99.90;;;;;;4977251;28;21715;-74
2022/07/23 12:30:18;;;;;;;7.30;5.50;;;29.50;99.90;;;;;;4977848;28;20463;-73
2022/07/23 12:32:46;;;;;;;6.13;5.53;;;29.60;99.90;;;;;;4978680;28;20542;-74
2022/07/23 12:35:13;;;;;;;7.00;6.03;;;29.70;99.90;;;;;;4978788;28;20878;-74
2022/07/23 12:37:42;;;;;;;7.10;6.10;;;29.90;99.90;;;;;;4978044;28;21048;-73
2022/07/23 12:40:30;;;;;;;7.00;6.30;;;30.20;99.90;;;;;;4978276;28;20534;-73
2022/07/23 12:42:59;;;;;;;12.60;6.13;;;30.10;99.90;;;;;;4975262;28;20462;-72
2022/07/23 12:45:28;;;;;;;11.23;6.20;;;29.70;99.90;;;;;;4978909;28;20936;-72